Time;durP1;ratioP1;P1;durP2;ratioP2;P2;SDS_P1;SDS_P2;PMS_P1;PMS_P2;Temp;Humidity;BMP_temperature;BMP_pressure;BME280_temperature;BME280_humidity;BME280_pressure;Samples;Min_cycle;Max_cycle;Signal;HPM_P1;HPM_P2
2023/06/28 00:01:39;;;;;;;3.90;2.85;;;24.10;61.20;;;;;;5018562;28;20030;-80
2023/06/28 00:04:05;;;;;;;4.60;3.13;;;24.10;61.30;;;;;;5016896;28;20461;-80
2023/06/28 00:06:31;;;;;;;4.97;3.10;;;24.00;61.20;;;;;;5017672;28;20030;-80
2023/06/28 00:08:58;;;;;;;4.53;3.40;;;24.00;61.30;;;;;;5017779;28;20081;-80
2023/06/28 00:11:25;;;;;;;4.65;3.30;;;24.00;61.30;;;;;;5016667;28;20084;-80
2023/06/28 00:13:51;;;;;;;4.00;3.03;;;24.00;61.40;;;;;;5017635;28;20365;-80
2023/06/28 00:16:17;;;;;;;6.13;3.10;;;24.00;61.40;;;;;;5017783;28;20033;-80
2023/06/28 00:18:45;;;;;;;3.90;3.45;;;24.00;61.40;;;;;;5017709;28;20415;-80
2023/06/28 00:21:14;;;;;;;3.58;3.03;;;24.00;61.50;;;;;;5017511;28;20472;-80
2023/06/28 00:23:40;;;;;;;5.47;3.30;;;24.00;61.50;;;;;;5017590;28;20026;-80
2023/06/28 00:26:06;;;;;;;3.47;3.05;;;24.00;61.50;;;;;;5017563;28;20022;-80
2023/06/28 00:28:32;;;;;;;4.15;3.40;;;24.00;61.50;;;;;;5017604;28;20079;-79
2023/06/28 00:30:58;;;;;;;4.53;3.60;;;24.00;61.50;;;;;;5016608;28;20044;-79
2023/06/28 00:33:23;;;;;;;5.75;3.90;;;24.00;61.50;;;;;;5017474;28;20050;-79
2023/06/28 00:35:49;;;;;;;3.85;3.00;;;23.90;61.50;;;;;;5015697;28;20022;-79
2023/06/28 00:38:15;;;;;;;4.53;3.63;;;23.90;61.70;;;;;;5017602;28;20428;-79
2023/06/28 00:40:41;;;;;;;4.13;3.22;;;23.90;61.80;;;;;;5017303;28;20030;-79
2023/06/28 00:43:07;;;;;;;4.70;3.22;;;23.80;61.90;;;;;;5017125;28;20368;-80
2023/06/28 00:45:33;;;;;;;4.10;3.30;;;23.80;62.10;;;;;;5017165;28;20040;-79
2023/06/28 00:47:59;;;;;;;3.97;3.50;;;23.80;62.30;;;;;;5015717;28;20038;-79
2023/06/28 00:50:26;;;;;;;3.58;3.10;;;23.70;62.70;;;;;;4999482;28;20025;-78
2023/06/28 00:52:51;;;;;;;4.32;3.38;;;23.50;62.80;;;;;;5016712;28;20022;-79
2023/06/28 00:55:17;;;;;;;4.78;3.50;;;23.50;63.00;;;;;;5017158;28;20037;-79
2023/06/28 00:57:43;;;;;;;6.63;3.22;;;23.40;63.50;;;;;;5017028;28;20529;-79
2023/06/28 01:00:12;;;;;;;3.97;3.00;;;23.50;63.40;;;;;;5017108;28;20025;-80
2023/06/28 01:02:41;;;;;;;3.72;3.22;;;23.50;63.50;;;;;;5016526;28;20076;-79
2023/06/28 01:05:13;;;;;;;4.18;3.28;;;23.50;63.50;;;;;;5015271;28;20080;-80
2023/06/28 01:07:40;;;;;;;4.05;3.38;;;23.50;63.60;;;;;;5016936;28;20030;-79
2023/06/28 01:10:06;;;;;;;4.25;3.40;;;23.50;63.80;;;;;;5015184;28;20037;-79
2023/06/28 01:12:33;;;;;;;4.88;3.80;;;23.50;63.80;;;;;;5017369;28;20036;-79
2023/06/28 01:14:59;;;;;;;4.47;3.53;;;23.40;63.90;;;;;;5016804;28;20025;-80
2023/06/28 01:17:25;;;;;;;4.05;3.58;;;23.40;64.00;;;;;;5015226;28;20071;-79
2023/06/28 01:19:54;;;;;;;4.50;3.40;;;23.30;64.20;;;;;;5016447;28;20040;-78
2023/06/28 01:22:20;;;;;;;3.42;3.13;;;23.30;64.50;;;;;;5016465;28;20109;-79
2023/06/28 01:24:46;;;;;;;3.40;3.10;;;23.30;64.70;;;;;;5016723;28;20453;-79
2023/06/28 01:27:13;;;;;;;4.75;3.35;;;23.20;64.60;;;;;;5016152;28;20033;-80
2023/06/28 01:29:40;;;;;;;4.43;3.47;;;23.20;64.80;;;;;;5014890;28;20025;-79
2023/06/28 01:32:06;;;;;;;3.55;3.05;;;23.20;64.90;;;;;;5016089;28;20135;-79
2023/06/28 01:34:32;;;;;;;4.03;3.42;;;23.20;64.90;;;;;;5016336;28;20033;-78
2023/06/28 01:37:01;;;;;;;4.75;3.53;;;23.20;65.20;;;;;;5016275;28;20105;-78
2023/06/28 01:39:29;;;;;;;5.45;3.60;;;23.10;65.70;;;;;;5016095;28;20053;-79
2023/06/28 01:41:55;;;;;;;4.55;3.33;;;23.10;65.60;;;;;;5016103;28;20034;-79
2023/06/28 01:44:22;;;;;;;3.90;3.25;;;23.00;65.60;;;;;;5014714;28;20439;-79
2023/06/28 01:46:49;;;;;;;3.78;3.10;;;23.00;65.80;;;;;;5015842;28;20030;-79
2023/06/28 01:49:15;;;;;;;3.70;3.30;;;22.90;66.00;;;;;;5015843;28;20026;-79
2023/06/28 01:51:41;;;;;;;3.67;3.10;;;22.90;66.00;;;;;;5014750;28;20148;-78
2023/06/28 01:54:07;;;;;;;3.47;3.13;;;22.90;66.20;;;;;;5015900;28;20030;-79
2023/06/28 01:56:32;;;;;;;3.55;3.20;;;22.90;66.20;;;;;;5014814;28;20061;-79
2023/06/28 01:58:58;;;;;;;3.17;2.88;;;22.80;66.10;;;;;;5015807;28;20084;-78
2023/06/28 02:01:24;;;;;;;3.38;3.05;;;22.80;66.40;;;;;;5016092;28;20036;-79
2023/06/28 02:03:49;;;;;;;3.70;3.10;;;22.90;66.50;;;;;;5015909;28;20049;-78
2023/06/28 02:06:15;;;;;;;3.88;3.13;;;22.80;66.30;;;;;;5015320;28;20061;-79
2023/06/28 02:08:41;;;;;;;2.88;2.65;;;22.80;66.50;;;;;;5016659;28;20117;-79
2023/06/28 02:11:07;;;;;;;3.50;3.00;;;22.80;66.50;;;;;;5023447;28;20030;-79
2023/06/28 02:13:33;;;;;;;4.30;3.40;;;22.80;66.60;;;;;;5019908;28;20373;-79
2023/06/28 02:15:58;;;;;;;4.40;3.20;;;22.80;66.70;;;;;;5015843;28;20033;-79
2023/06/28 02:18:26;;;;;;;3.45;3.00;;;22.80;66.70;;;;;;5014256;28;20036;-79
2023/06/28 02:20:52;;;;;;;3.95;3.30;;;22.80;67.10;;;;;;5015252;28;20468;-80
2023/06/28 02:23:19;;;;;;;3.50;3.20;;;22.80;67.30;;;;;;5015305;28;20038;-80
2023/06/28 02:25:44;;;;;;;3.30;3.00;;;22.90;67.50;;;;;;5015431;28;20030;-79
2023/06/28 02:28:10;;;;;;;3.38;2.95;;;22.90;67.00;;;;;;5015109;28;20056;-80
2023/06/28 02:30:36;;;;;;;3.45;3.15;;;22.90;67.10;;;;;;5015643;28;20403;-79
2023/06/28 02:33:02;;;;;;;4.60;2.80;;;22.90;67.00;;;;;;5015472;28;20026;-79
2023/06/28 02:35:27;;;;;;;3.05;2.58;;;22.80;67.00;;;;;;5015171;28;20043;-79
2023/06/28 02:37:53;;;;;;;3.13;2.65;;;22.90;67.00;;;;;;5013743;28;20117;-80
2023/06/28 02:40:19;;;;;;;3.30;2.90;;;22.90;67.00;;;;;;5015138;28;20057;-80
2023/06/28 02:42:45;;;;;;;4.35;2.80;;;22.80;67.00;;;;;;5013605;28;20030;-79
2023/06/28 02:45:11;;;;;;;3.75;3.10;;;22.80;67.40;;;;;;5015569;28;20056;-79
2023/06/28 02:47:37;;;;;;;3.42;2.90;;;22.80;67.20;;;;;;5014896;28;20103;-79
2023/06/28 02:50:05;;;;;;;3.78;3.00;;;22.80;67.40;;;;;;5013524;28;20129;-79
2023/06/28 02:52:32;;;;;;;2.97;2.70;;;22.80;67.50;;;;;;5013439;28;20037;-79
2023/06/28 02:54:58;;;;;;;4.38;3.10;;;22.90;67.30;;;;;;5013584;28;20456;-79
2023/06/28 02:57:24;;;;;;;3.13;2.85;;;22.80;67.10;;;;;;5014905;28;20026;-79
2023/06/28 02:59:50;;;;;;;4.40;3.45;;;22.80;67.10;;;;;;5015109;28;20052;-79
2023/06/28 03:02:15;;;;;;;3.92;2.70;;;22.80;67.30;;;;;;5014964;28;20054;-79
2023/06/28 03:04:41;;;;;;;3.38;2.72;;;22.80;67.20;;;;;;5014782;28;20124;-79
2023/06/28 03:07:17;;;;;;;2.90;2.60;;;22.80;67.30;;;;;;5014547;28;20427;-79
2023/06/28 03:09:43;;;;;;;2.63;2.42;;;22.80;67.20;;;;;;5014240;28;20388;-79
2023/06/28 03:12:09;;;;;;;3.25;2.65;;;22.70;67.20;;;;;;5014388;28;20084;-79
2023/06/28 03:14:35;;;;;;;2.75;2.55;;;22.60;67.00;;;;;;5014661;28;20445;-78
2023/06/28 03:17:01;;;;;;;3.22;2.83;;;22.60;67.10;;;;;;5014301;28;20085;-79
2023/06/28 03:19:27;;;;;;;3.58;2.40;;;22.60;67.10;;;;;;5014472;28;20029;-78
2023/06/28 03:21:52;;;;;;;3.13;2.70;;;22.50;67.00;;;;;;5014469;28;20025;-78
2023/06/28 03:24:18;;;;;;;3.65;2.90;;;22.50;67.40;;;;;;5014009;28;20036;-78
2023/06/28 03:26:44;;;;;;;3.13;2.80;;;22.60;67.20;;;;;;5014651;28;20029;-78
2023/06/28 03:29:10;;;;;;;3.35;2.60;;;22.60;67.00;;;;;;5014158;28;20034;-78
2023/06/28 03:31:35;;;;;;;2.88;2.50;;;22.60;67.10;;;;;;5014077;28;20429;-78
2023/06/28 03:34:01;;;;;;;2.67;2.40;;;22.50;66.90;;;;;;5014086;28;20100;-79
2023/06/28 03:36:31;;;;;;;2.55;2.35;;;22.60;66.90;;;;;;5012819;28;20061;-79
2023/06/28 03:38:57;;;;;;;3.45;2.50;;;22.60;66.90;;;;;;5012798;28;20388;-79
2023/06/28 03:41:24;;;;;;;2.90;2.60;;;22.60;66.90;;;;;;5014126;28;20022;-78
2023/06/28 03:43:50;;;;;;;2.67;2.45;;;22.60;67.00;;;;;;5012899;28;20053;-78
2023/06/28 03:46:15;;;;;;;2.85;2.58;;;22.70;66.80;;;;;;5013239;28;20117;-79
2023/06/28 03:48:41;;;;;;;2.70;2.50;;;22.80;66.60;;;;;;5013917;28;20421;-78
2023/06/28 03:51:07;;;;;;;3.25;2.58;;;22.80;66.70;;;;;;5012773;28;20049;-79
2023/06/28 03:53:32;;;;;;;4.53;2.65;;;22.80;66.70;;;;;;5014164;28;20432;-79
2023/06/28 03:55:58;;;;;;;3.50;2.70;;;22.80;66.40;;;;;;5013711;28;20033;-78
2023/06/28 03:58:24;;;;;;;3.10;2.60;;;22.80;66.40;;;;;;5014277;28;20037;-79
2023/06/28 04:00:49;;;;;;;3.20;2.72;;;22.80;66.30;;;;;;5013739;28;20033;-79
2023/06/28 04:03:15;;;;;;;3.22;2.45;;;22.80;66.40;;;;;;5014078;28;20076;-79
2023/06/28 04:05:41;;;;;;;3.40;2.50;;;22.80;66.40;;;;;;5013819;28;20034;-79
2023/06/28 04:08:08;;;;;;;2.88;2.50;;;22.80;66.30;;;;;;5012502;28;20121;-78
2023/06/28 04:10:36;;;;;;;2.92;2.60;;;22.90;66.30;;;;;;5014018;28;20030;-78
2023/06/28 04:13:02;;;;;;;2.92;2.63;;;22.90;66.30;;;;;;5014222;28;20036;-79
2023/06/28 04:15:27;;;;;;;3.08;2.53;;;22.90;66.20;;;;;;5013492;28;20034;-79
2023/06/28 04:17:53;;;;;;;3.78;2.60;;;23.00;66.00;;;;;;5013918;28;20049;-80
2023/06/28 04:20:19;;;;;;;2.75;2.55;;;22.90;65.90;;;;;;5013657;28;20026;-79
2023/06/28 04:22:45;;;;;;;3.05;2.35;;;22.90;66.00;;;;;;5013534;28;20022;-78
2023/06/28 04:25:13;;;;;;;4.25;2.70;;;22.80;66.10;;;;;;5013560;28;20022;-79
2023/06/28 04:27:39;;;;;;;3.00;2.30;;;22.90;66.10;;;;;;5013536;28;20029;-79
2023/06/28 04:30:05;;;;;;;3.28;2.50;;;22.90;66.00;;;;;;5013474;28;20037;-79
2023/06/28 04:32:31;;;;;;;2.45;2.25;;;22.90;65.90;;;;;;5012011;28;20530;-78
2023/06/28 04:34:58;;;;;;;2.90;2.65;;;22.90;66.00;;;;;;5013093;28;20026;-80
2023/06/28 04:37:33;;;;;;;3.42;2.58;;;23.00;65.80;;;;;;5013578;28;20034;-79
2023/06/28 04:40:00;;;;;;;3.42;2.40;;;23.10;65.80;;;;;;5013718;28;20073;-79
2023/06/28 04:42:25;;;;;;;4.05;2.50;;;23.20;65.40;;;;;;5013451;28;20038;-79
2023/06/28 04:44:51;;;;;;;2.70;2.50;;;23.20;65.10;;;;;;5013188;28;20078;-79
2023/06/28 04:47:17;;;;;;;3.30;2.33;;;23.20;65.10;;;;;;5016938;28;20018;-80
2023/06/28 04:49:49;;;;;;;2.55;2.35;;;23.20;64.90;;;;;;5016536;28;20034;-79
2023/06/28 04:52:19;;;;;;;2.13;2.03;;;23.20;64.90;;;;;;5017072;28;20033;-79
2023/06/28 04:54:46;;;;;;;2.63;2.40;;;23.10;64.80;;;;;;5016376;28;20083;-80
2023/06/28 04:57:13;;;;;;;3.33;2.40;;;23.10;64.80;;;;;;5016542;28;20030;-81
2023/06/28 04:59:39;;;;;;;2.80;2.58;;;23.10;64.80;;;;;;5016181;28;20111;-80
2023/06/28 05:02:05;;;;;;;4.22;2.60;;;23.00;64.70;;;;;;5014398;28;20168;-76
2023/06/28 05:04:34;;;;;;;2.72;2.42;;;22.90;64.80;;;;;;5014397;28;20018;-79
2023/06/28 05:07:05;;;;;;;3.38;2.60;;;22.80;65.00;;;;;;5015694;28;20026;-81
2023/06/28 05:09:32;;;;;;;2.85;2.38;;;22.80;65.00;;;;;;5015465;28;20113;-81
2023/06/28 05:11:58;;;;;;;3.05;2.30;;;22.70;65.10;;;;;;5015810;28;20026;-79
2023/06/28 05:14:25;;;;;;;3.63;2.72;;;22.60;65.20;;;;;;5015994;28;20068;-80
2023/06/28 05:16:51;;;;;;;5.10;2.70;;;22.60;65.30;;;;;;5014408;28;20083;-80
2023/06/28 05:19:17;;;;;;;2.50;2.30;;;22.50;65.40;;;;;;5016552;28;20441;-79
2023/06/28 05:21:43;;;;;;;3.08;2.78;;;22.40;65.50;;;;;;5015815;28;20388;-80
2023/06/28 05:24:08;;;;;;;4.25;2.70;;;22.50;65.60;;;;;;5015316;28;20022;-80
2023/06/28 05:26:34;;;;;;;2.55;2.35;;;22.50;65.60;;;;;;5013734;28;20034;-79
2023/06/28 05:28:59;;;;;;;2.72;2.28;;;22.50;65.50;;;;;;5014882;28;20025;-81
2023/06/28 05:31:25;;;;;;;3.60;2.72;;;22.60;65.40;;;;;;5015159;28;20038;-79
2023/06/28 05:33:51;;;;;;;2.83;2.50;;;22.60;65.20;;;;;;5015333;28;20033;-78
2023/06/28 05:36:20;;;;;;;3.67;2.75;;;22.60;65.20;;;;;;5014229;28;20570;-78
2023/06/28 05:38:46;;;;;;;2.78;2.42;;;22.60;65.80;;;;;;5015183;28;20392;-82
2023/06/28 05:41:16;;;;;;;4.28;2.60;;;22.60;65.40;;;;;;5014299;28;20029;-81
2023/06/28 05:43:46;;;;;;;2.90;2.60;;;22.50;65.40;;;;;;5014517;28;20522;-74
2023/06/28 05:46:12;;;;;;;4.03;2.70;;;22.60;65.50;;;;;;5016160;28;20038;-76
2023/06/28 05:48:38;;;;;;;2.58;2.20;;;22.60;65.50;;;;;;5016507;28;20137;-77
2023/06/28 05:51:14;;;;;;;2.75;2.53;;;22.60;65.40;;;;;;5013311;28;20045;-78
2023/06/28 05:53:40;;;;;;;3.88;2.97;;;22.60;65.40;;;;;;5013763;28;20022;-77
2023/06/28 05:56:07;;;;;;;2.90;2.60;;;22.70;65.30;;;;;;5014498;28;20033;-79
2023/06/28 05:58:33;;;;;;;2.67;2.47;;;22.70;65.40;;;;;;5013824;28;20030;-79
2023/06/28 06:01:00;;;;;;;4.93;2.92;;;22.80;65.20;;;;;;5014463;28;20388;-79
2023/06/28 06:03:25;;;;;;;3.80;2.70;;;22.80;65.10;;;;;;5014680;28;20026;-77
2023/06/28 06:05:52;;;;;;;3.47;2.70;;;22.80;65.00;;;;;;5014439;28;20037;-79
2023/06/28 06:08:18;;;;;;;4.85;2.85;;;22.90;65.00;;;;;;5010292;28;20034;-77
2023/06/28 06:10:44;;;;;;;4.93;3.20;;;23.00;64.90;;;;;;5014290;28;20528;-77
2023/06/28 06:13:09;;;;;;;3.78;3.17;;;23.00;64.70;;;;;;5014483;28;20380;-76
2023/06/28 06:15:35;;;;;;;3.85;3.00;;;23.00;64.70;;;;;;5014207;28;20037;-75
2023/06/28 06:18:01;;;;;;;5.10;2.97;;;22.90;64.90;;;;;;4996911;28;20479;-76
2023/06/28 06:20:26;;;;;;;3.65;2.80;;;23.00;64.90;;;;;;5015149;28;20030;-75
2023/06/28 06:22:52;;;;;;;3.22;2.85;;;23.10;64.80;;;;;;5014619;28;20026;-75
2023/06/28 06:25:18;;;;;;;4.68;3.15;;;23.10;64.60;;;;;;5013831;28;20540;-76
2023/06/28 06:27:43;;;;;;;3.20;2.80;;;23.20;64.50;;;;;;5013933;28;20026;-75
2023/06/28 06:30:13;;;;;;;3.28;2.80;;;23.20;64.30;;;;;;5013926;28;20034;-73
2023/06/28 06:32:39;;;;;;;3.28;2.95;;;23.20;64.20;;;;;;5014746;28;20033;-74
2023/06/28 06:35:06;;;;;;;3.85;2.70;;;23.20;64.10;;;;;;5013107;28;20029;-75
2023/06/28 06:37:32;;;;;;;2.90;2.70;;;23.20;64.00;;;;;;5012418;28;20044;-76
2023/06/28 06:39:58;;;;;;;3.00;2.70;;;23.20;63.90;;;;;;5014229;28;20034;-76
2023/06/28 06:42:23;;;;;;;3.60;2.75;;;23.20;63.70;;;;;;5012863;28;20444;-76
2023/06/28 06:44:49;;;;;;;3.00;2.60;;;23.30;63.60;;;;;;5012747;28;20050;-76
2023/06/28 06:47:15;;;;;;;5.40;2.65;;;23.30;63.20;;;;;;5012177;28;20026;-76
2023/06/28 06:49:40;;;;;;;5.07;2.70;;;23.30;63.10;;;;;;5014656;28;20034;-77
2023/06/28 06:52:06;;;;;;;3.28;2.60;;;23.30;63.00;;;;;;5013067;28;20100;-77
2023/06/28 06:54:32;;;;;;;2.80;2.60;;;23.30;62.80;;;;;;5014285;28;20380;-76
2023/06/28 06:56:59;;;;;;;3.05;2.50;;;23.40;62.70;;;;;;5013026;28;20121;-77
2023/06/28 06:59:26;;;;;;;2.60;2.40;;;23.50;62.80;;;;;;5013877;28;20026;-76
2023/06/28 07:01:52;;;;;;;3.78;2.28;;;23.70;62.50;;;;;;5012850;28;20041;-76
2023/06/28 07:04:18;;;;;;;2.80;2.50;;;23.80;62.40;;;;;;5014141;28;20060;-76
2023/06/28 07:06:46;;;;;;;2.85;2.20;;;23.80;62.00;;;;;;5014001;28;20032;-77
2023/06/28 07:09:14;;;;;;;2.50;2.30;;;23.90;61.60;;;;;;5013738;28;20369;-78
2023/06/28 07:11:40;;;;;;;3.05;2.40;;;24.00;60.60;;;;;;5013184;28;20033;-77
2023/06/28 07:14:06;;;;;;;2.97;2.28;;;24.00;60.60;;;;;;5014275;28;20097;-77
2023/06/28 07:16:32;;;;;;;3.35;2.28;;;24.00;60.80;;;;;;5014141;28;20029;-77
2023/06/28 07:18:57;;;;;;;2.50;2.30;;;24.10;61.00;;;;;;5014041;28;20030;-77
2023/06/28 07:21:23;;;;;;;2.50;2.22;;;24.20;60.60;;;;;;5014008;28;20029;-77
2023/06/28 07:23:49;;;;;;;2.35;2.08;;;24.30;60.30;;;;;;5013895;28;20033;-78
2023/06/28 07:26:15;;;;;;;2.30;2.10;;;24.30;59.50;;;;;;5013997;28;20034;-77
2023/06/28 07:28:41;;;;;;;3.58;2.45;;;24.40;59.60;;;;;;5014155;28;20231;-75
2023/06/28 07:31:07;;;;;;;2.60;2.40;;;24.30;59.50;;;;;;5012565;28;20033;-74
2023/06/28 07:33:33;;;;;;;2.47;2.28;;;24.40;59.30;;;;;;5013897;28;20495;-74
2023/06/28 07:35:58;;;;;;;2.30;2.10;;;24.40;59.50;;;;;;5012355;28;20049;-74
2023/06/28 07:38:24;;;;;;;3.22;2.25;;;24.40;58.80;;;;;;5013702;28;20030;-74
2023/06/28 07:40:51;;;;;;;3.25;2.47;;;24.40;58.50;;;;;;5013648;28;20026;-75
2023/06/28 07:43:18;;;;;;;2.42;2.15;;;24.30;58.00;;;;;;5013647;28;20109;-74
2023/06/28 07:45:44;;;;;;;4.00;2.28;;;24.20;58.30;;;;;;5013908;28;20052;-74
2023/06/28 07:48:09;;;;;;;2.80;2.22;;;24.20;58.60;;;;;;5013563;28;20030;-74
2023/06/28 07:50:35;;;;;;;2.83;2.40;;;24.20;58.00;;;;;;5013577;28;20037;-74
2023/06/28 07:53:01;;;;;;;2.83;2.40;;;24.20;58.00;;;;;;5012234;28;20056;-74
2023/06/28 07:55:30;;;;;;;3.00;2.20;;;24.20;57.40;;;;;;5013639;28;20477;-74
2023/06/28 07:57:57;;;;;;;4.43;2.60;;;24.00;57.90;;;;;;5013844;28;20057;-74
2023/06/28 08:00:23;;;;;;;2.88;2.63;;;23.90;57.90;;;;;;5013232;28;20026;-74
2023/06/28 08:02:49;;;;;;;2.78;2.38;;;23.90;57.80;;;;;;5013464;28;20041;-73
2023/06/28 08:05:15;;;;;;;3.20;2.38;;;23.80;58.10;;;;;;5013239;28;20030;-74
2023/06/28 08:07:41;;;;;;;3.45;2.30;;;23.80;58.30;;;;;;5013354;28;20068;-74
2023/06/28 08:10:08;;;;;;;2.75;2.20;;;23.90;58.50;;;;;;5013834;28;20030;-74
2023/06/28 08:12:33;;;;;;;2.55;2.20;;;24.00;58.40;;;;;;5013263;28;20058;-74
2023/06/28 08:14:59;;;;;;;2.20;2.00;;;24.20;58.20;;;;;;5013337;28;20057;-75
2023/06/28 08:17:25;;;;;;;3.67;2.33;;;24.30;57.80;;;;;;5012409;28;20113;-74
2023/06/28 08:19:50;;;;;;;3.00;2.20;;;24.40;57.70;;;;;;5013633;28;20409;-75
2023/06/28 08:22:16;;;;;;;2.50;2.30;;;24.40;57.60;;;;;;5017020;28;20033;-73
2023/06/28 08:24:42;;;;;;;2.40;2.20;;;24.50;57.20;;;;;;5017318;28;20053;-75
2023/06/28 08:27:07;;;;;;;3.53;2.33;;;24.50;56.40;;;;;;5017489;28;20125;-74
2023/06/28 08:29:33;;;;;;;2.00;1.90;;;24.50;56.70;;;;;;5017047;28;20046;-75
2023/06/28 08:31:59;;;;;;;2.10;1.95;;;24.60;56.90;;;;;;5016948;28;20041;-74
2023/06/28 08:34:24;;;;;;;2.58;2.00;;;24.70;56.80;;;;;;5017033;28;20376;-74
2023/06/28 08:36:50;;;;;;;2.40;2.20;;;24.70;56.40;;;;;;5016978;28;20030;-74
2023/06/28 08:39:16;;;;;;;2.60;2.00;;;24.70;55.70;;;;;;5016506;28;20065;-74
2023/06/28 08:41:43;;;;;;;2.63;2.42;;;24.70;55.80;;;;;;5016868;28;20555;-74
2023/06/28 08:44:12;;;;;;;3.20;2.10;;;24.70;55.10;;;;;;5016652;28;20525;-74
2023/06/28 08:46:42;;;;;;;2.10;1.98;;;24.70;55.50;;;;;;5017008;28;20026;-74
2023/06/28 08:49:08;;;;;;;2.28;2.05;;;24.80;55.50;;;;;;5016561;28;20037;-74
2023/06/28 08:51:34;;;;;;;4.22;2.50;;;24.80;55.20;;;;;;5016479;28;20038;-75
2023/06/28 08:54:00;;;;;;;2.63;2.20;;;24.70;54.80;;;;;;5015904;28;20037;-74
2023/06/28 08:56:27;;;;;;;2.50;2.30;;;24.70;55.10;;;;;;5016480;28;20229;-74
2023/06/28 08:58:54;;;;;;;2.65;2.15;;;24.70;54.60;;;;;;5015287;28;20531;-74
2023/06/28 09:01:22;;;;;;;3.22;2.20;;;24.70;54.80;;;;;;5016674;28;20026;-74
2023/06/28 09:03:48;;;;;;;2.17;1.98;;;24.70;54.80;;;;;;5015015;28;20026;-74
2023/06/28 09:06:14;;;;;;;2.95;2.38;;;24.70;55.00;;;;;;5016202;28;20050;-74
2023/06/28 09:08:42;;;;;;;3.08;2.00;;;24.70;54.50;;;;;;5016778;28;20041;-74
2023/06/28 09:11:09;;;;;;;2.17;1.98;;;24.70;54.70;;;;;;5015450;28;20034;-73
2023/06/28 09:13:35;;;;;;;2.10;1.90;;;24.70;55.00;;;;;;5016434;28;20423;-74
2023/06/28 09:16:01;;;;;;;2.58;1.90;;;24.90;55.00;;;;;;5015231;28;20327;-75
2023/06/28 09:18:27;;;;;;;2.70;2.10;;;25.00;54.50;;;;;;5015492;28;20030;-75
2023/06/28 09:20:54;;;;;;;1.88;1.75;;;25.10;54.40;;;;;;5015923;28;20491;-75
2023/06/28 09:23:27;;;;;;;1.95;1.70;;;25.20;54.20;;;;;;5016079;28;20057;-75
2023/06/28 09:25:53;;;;;;;3.83;2.27;;;25.20;54.70;;;;;;5015028;28;20030;-75
2023/06/28 09:28:22;;;;;;;2.53;2.10;;;25.30;53.70;;;;;;5016016;28;20087;-74
2023/06/28 09:30:52;;;;;;;3.10;2.00;;;25.30;53.40;;;;;;5014439;28;20369;-75
2023/06/28 09:33:18;;;;;;;2.00;1.90;;;25.30;53.40;;;;;;5016047;28;20076;-75
2023/06/28 09:35:44;;;;;;;2.10;1.90;;;25.30;53.20;;;;;;5015651;28;20026;-75
2023/06/28 09:38:10;;;;;;;2.28;2.08;;;25.30;52.90;;;;;;5015880;28;20053;-75
2023/06/28 09:40:36;;;;;;;2.28;2.03;;;25.20;53.00;;;;;;5015651;28;20028;-74
2023/06/28 09:43:02;;;;;;;4.13;2.20;;;25.10;52.60;;;;;;5015790;28;20062;-75
2023/06/28 09:45:31;;;;;;;2.45;2.00;;;25.10;52.90;;;;;;5015689;28;20030;-75
2023/06/28 09:47:58;;;;;;;2.45;2.15;;;25.00;53.00;;;;;;5015368;28;20104;-75
2023/06/28 09:50:40;;;;;;;2.72;1.80;;;25.00;52.80;;;;;;5016081;28;20026;-75
2023/06/28 09:53:10;;;;;;;2.40;2.20;;;24.90;53.20;;;;;;5015641;28;20054;-74
2023/06/28 09:55:40;;;;;;;1.98;1.75;;;24.80;52.80;;;;;;5015601;28;20105;-75
2023/06/28 09:58:17;;;;;;;1.95;1.73;;;24.70;52.90;;;;;;5014244;28;20502;-74
2023/06/28 10:00:46;;;;;;;2.28;2.00;;;24.70;53.10;;;;;;5014257;28;20468;-75
2023/06/28 10:03:14;;;;;;;2.42;1.92;;;24.70;53.00;;;;;;5015245;28;20037;-75
2023/06/28 10:05:42;;;;;;;2.30;1.80;;;24.70;53.30;;;;;;5013936;28;20109;-75
2023/06/28 10:08:13;;;;;;;2.95;2.05;;;24.70;53.10;;;;;;5015476;28;20026;-75
2023/06/28 10:10:40;;;;;;;2.85;1.95;;;24.70;52.70;;;;;;5013829;28;20117;-75
2023/06/28 10:13:19;;;;;;;2.30;1.90;;;24.70;52.10;;;;;;5015376;28;20022;-76
2023/06/28 10:15:55;;;;;;;2.60;2.00;;;24.70;51.80;;;;;;5015630;28;20026;-75
2023/06/28 10:18:22;;;;;;;3.50;1.95;;;24.60;52.00;;;;;;5015521;28;20041;-74
2023/06/28 10:20:48;;;;;;;2.10;1.90;;;24.60;52.20;;;;;;5014894;28;20032;-75
2023/06/28 10:23:15;;;;;;;1.90;1.73;;;24.70;52.40;;;;;;5014920;28;20038;-75
2023/06/28 10:25:43;;;;;;;2.55;1.90;;;24.70;51.70;;;;;;5014988;28;20026;-75
2023/06/28 10:28:09;;;;;;;1.80;1.35;;;24.70;52.00;;;;;;5013331;28;20065;-75
2023/06/28 10:30:35;;;;;;;1.60;1.50;;;24.80;52.10;;;;;;5015077;28;20037;-74
2023/06/28 10:33:02;;;;;;;1.77;1.67;;;24.90;51.50;;;;;;5015169;28;20030;-74
2023/06/28 10:35:28;;;;;;;1.52;1.42;;;25.00;51.60;;;;;;5014721;28;20037;-75
2023/06/28 10:37:58;;;;;;;1.92;1.67;;;25.10;51.50;;;;;;5014720;28;20034;-75
2023/06/28 10:40:25;;;;;;;1.70;1.60;;;25.10;51.40;;;;;;5013504;28;20028;-75
2023/06/28 10:42:50;;;;;;;1.70;1.60;;;25.20;51.50;;;;;;5014542;28;20061;-75
2023/06/28 10:45:16;;;;;;;2.03;1.70;;;25.30;51.10;;;;;;5012876;28;20108;-75
2023/06/28 10:47:54;;;;;;;2.92;1.65;;;25.40;50.80;;;;;;5014847;28;20045;-75
2023/06/28 10:50:21;;;;;;;1.83;1.52;;;25.50;50.70;;;;;;5013175;28;20033;-75
2023/06/28 10:52:55;;;;;;;1.38;1.27;;;25.50;50.30;;;;;;5013407;28;20141;-75
2023/06/28 10:55:30;;;;;;;;;;;25.50;49.70;;;;;;5015169;28;20373;-75
2023/06/28 10:58:11;;;;;;;1.55;1.45;;;25.50;48.60;;;;;;5014443;28;19913;-75
2023/06/28 11:00:37;;;;;;;1.45;1.35;;;25.50;48.80;;;;;;5014465;28;20030;-74
2023/06/28 11:03:06;;;;;;;2.00;1.40;;;25.40;49.10;;;;;;5014300;28;20087;-75
2023/06/28 11:05:39;;;;;;;2.30;1.85;;;25.50;48.60;;;;;;5013701;28;20057;-75
2023/06/28 11:08:10;;;;;;;1.35;1.20;;;25.50;48.40;;;;;;5014305;28;20479;-75
2023/06/28 11:10:37;;;;;;;1.67;1.50;;;25.50;48.70;;;;;;5014268;28;20034;-75
2023/06/28 11:13:03;;;;;;;3.00;1.52;;;25.50;48.70;;;;;;5012630;28;20033;-74
2023/06/28 11:15:33;;;;;;;1.83;1.30;;;25.60;48.80;;;;;;5014114;28;20074;-74
2023/06/28 11:18:18;;;;;;;1.13;1.05;;;25.60;48.90;;;;;;5014375;28;20040;-74
2023/06/28 11:20:53;;;;;;;1.25;1.15;;;25.70;48.80;;;;;;5013154;28;20469;-75
2023/06/28 11:23:34;;;;;;;1.58;1.20;;;25.80;48.50;;;;;;5014505;28;20029;-74
2023/06/28 11:26:04;;;;;;;1.35;1.10;;;25.80;48.60;;;;;;5014441;28;20033;-74
2023/06/28 11:28:31;;;;;;;1.70;1.33;;;25.90;48.60;;;;;;5013996;28;20034;-74
2023/06/28 11:31:14;;;;;;;1.83;1.40;;;25.90;48.10;;;;;;5012634;28;20061;-75
2023/06/28 11:33:41;;;;;;;1.77;1.40;;;25.90;47.60;;;;;;5012997;28;20022;-74
2023/06/28 11:36:08;;;;;;;1.30;1.20;;;25.80;47.80;;;;;;5012670;28;20386;-75
2023/06/28 11:38:35;;;;;;;3.55;1.38;;;25.80;48.20;;;;;;5013854;28;20056;-75
2023/06/28 11:41:00;;;;;;;1.40;1.30;;;25.90;48.40;;;;;;5012721;28;20026;-73
2023/06/28 11:43:26;;;;;;;1.15;1.05;;;26.00;48.50;;;;;;5014977;28;20042;-76
2023/06/28 11:45:52;;;;;;;1.63;1.13;;;26.10;48.30;;;;;;5014127;28;20141;-75
2023/06/28 11:48:20;;;;;;;1.23;1.13;;;26.10;48.00;;;;;;5014027;28;20029;-75
2023/06/28 11:50:55;;;;;;;1.20;1.10;;;26.20;47.50;;;;;;5012629;28;20077;-75
2023/06/28 11:53:20;;;;;;;1.35;1.25;;;26.20;47.20;;;;;;5014318;28;20472;-74
2023/06/28 11:55:46;;;;;;;1.35;1.23;;;26.10;47.00;;;;;;5014235;28;20112;-74
2023/06/28 11:58:12;;;;;;;1.33;1.23;;;26.10;47.20;;;;;;5018088;28;20561;-74
2023/06/28 12:00:38;;;;;;;1.20;1.10;;;26.20;46.80;;;;;;5017710;28;20057;-75
2023/06/28 12:03:04;;;;;;;1.33;1.20;;;26.20;47.10;;;;;;5017740;28;20503;-74
2023/06/28 12:05:30;;;;;;;1.50;1.20;;;26.20;47.30;;;;;;5017206;28;20061;-74
2023/06/28 12:07:58;;;;;;;1.30;1.20;;;26.20;47.10;;;;;;5017557;28;20038;-74
2023/06/28 12:10:32;;;;;;;1.80;1.40;;;26.30;45.70;;;;;;5017442;28;20469;-74
2023/06/28 12:12:57;;;;;;;1.67;1.58;;;26.20;45.00;;;;;;5017817;28;20084;-74
2023/06/28 12:15:23;;;;;;;1.13;0.85;;;26.10;45.40;;;;;;5017282;28;20419;-75
2023/06/28 12:17:50;;;;;;;1.17;1.00;;;26.10;45.90;;;;;;5016164;28;20522;-74
2023/06/28 12:20:16;;;;;;;1.08;0.98;;;26.20;45.60;;;;;;5016721;28;20345;-74
2023/06/28 12:22:44;;;;;;;1.20;1.10;;;26.20;45.90;;;;;;5017661;28;20036;-74
2023/06/28 12:25:10;;;;;;;1.63;1.15;;;26.20;45.20;;;;;;5017146;28;20047;-74
2023/06/28 12:27:38;;;;;;;1.40;1.20;;;26.20;45.50;;;;;;5016884;28;20483;-74
2023/06/28 12:30:12;;;;;;;0.90;0.90;;;26.20;45.50;;;;;;5016988;28;20036;-74
2023/06/28 12:32:46;;;;;;;2.40;0.95;;;26.40;45.20;;;;;;5015847;28;20037;-74
2023/06/28 12:35:24;;;;;;;;;;;26.50;45.00;;;;;;5017511;28;20029;-74
2023/06/28 12:37:57;;;;;;;1.35;1.25;;;26.50;44.20;;;;;;5017083;28;19983;-74
2023/06/28 12:40:28;;;;;;;1.20;1.05;;;26.50;44.10;;;;;;5015687;28;20113;-76
2023/06/28 12:43:20;;;;;;;0.90;0.90;;;26.60;44.20;;;;;;5017046;28;20041;-75
2023/06/28 12:45:50;;;;;;;1.00;1.00;;;26.60;44.10;;;;;;5015999;28;20054;-75
2023/06/28 12:48:21;;;;;;;2.17;1.02;;;26.70;44.00;;;;;;5016799;28;20030;-74